createdAt,value
2018-12-22T00:00:28.846Z,93.82
2018-12-22T00:01:28.858Z,93.44
2018-12-22T00:02:28.885Z,92.18
2018-12-22T00:03:28.897Z,90.72
2018-12-22T00:04:28.836Z,90.81
2018-12-22T00:05:28.832Z,90.52
2018-12-22T00:06:28.881Z,91.30
2018-12-22T00:07:28.837Z,93.10
2018-12-22T00:08:28.816Z,92.81
2018-12-22T00:09:28.817Z,94.36
2018-12-22T00:10:28.826Z,94.26
2018-12-22T00:11:28.813Z,92.71
2018-12-22T00:12:28.830Z,97.96
2018-12-22T00:13:28.807Z,99.99
2018-12-22T00:14:28.784Z,99.99
2018-12-22T00:15:28.817Z,99.99
2018-12-22T00:16:28.786Z,99.99
2018-12-22T00:17:28.812Z,99.99
2018-12-22T00:18:28.793Z,99.99
2018-12-22T00:19:28.787Z,99.99
2018-12-22T00:20:28.828Z,99.99
2018-12-22T00:21:28.771Z,99.99
2018-12-22T00:22:28.810Z,99.99
2018-12-22T00:23:28.760Z,99.99
2018-12-22T00:24:28.753Z,99.99
2018-12-22T00:25:28.738Z,99.99
2018-12-22T00:26:28.775Z,99.99
2018-12-22T00:27:28.747Z,99.99
2018-12-22T00:28:28.725Z,99.99
2018-12-22T00:29:28.714Z,99.99
2018-12-22T00:30:28.743Z,99.99
2018-12-22T00:31:28.769Z,99.99
2018-12-22T00:32:28.984Z,99.99
2018-12-22T00:33:28.695Z,99.99
2018-12-22T00:34:28.706Z,99.99
2018-12-22T00:35:28.692Z,99.99
2018-12-22T00:36:28.662Z,99.99
2018-12-22T00:37:28.655Z,99.99
2018-12-22T00:38:28.688Z,99.99
2018-12-22T00:39:28.644Z,99.99
2018-12-22T00:40:28.660Z,99.99
2018-12-22T00:41:28.656Z,99.99
2018-12-22T00:42:28.685Z,99.99
2018-12-22T00:43:28.657Z,99.99
2018-12-22T00:44:28.628Z,99.99
2018-12-22T00:45:28.623Z,99.99
2018-12-22T00:46:28.634Z,99.99
2018-12-22T00:47:28.605Z,99.99
2018-12-22T00:48:28.668Z,99.99
2018-12-22T00:49:28.616Z,99.99
2018-12-22T00:50:28.593Z,99.99
2018-12-22T00:51:28.574Z,99.99
2018-12-22T00:52:28.585Z,99.99
2018-12-22T00:53:28.563Z,99.99
2018-12-22T00:54:28.572Z,99.99
2018-12-22T00:55:28.543Z,99.99
2018-12-22T00:56:28.552Z,99.99
2018-12-22T00:57:28.575Z,99.99
2018-12-22T00:58:30.841Z,99.99
2018-12-22T00:59:28.739Z,99.99
2018-12-22T01:00:28.516Z,99.99
2018-12-22T01:01:28.509Z,99.99
2018-12-22T01:02:28.515Z,99.99
2018-12-22T01:03:28.514Z,99.99
2018-12-22T01:04:28.489Z,99.99
2018-12-22T01:05:28.497Z,99.99
2018-12-22T01:06:28.488Z,99.99
2018-12-22T01:07:28.461Z,99.99
2018-12-22T01:08:28.514Z,99.99
2018-12-22T01:09:28.447Z,99.99
2018-12-22T01:10:28.455Z,99.99
2018-12-22T01:11:28.449Z,99.99
2018-12-22T01:12:28.444Z,99.99
2018-12-22T01:13:28.447Z,99.99
2018-12-22T01:14:28.428Z,99.99
2018-12-22T01:15:28.439Z,99.99
2018-12-22T01:16:28.433Z,99.99
2018-12-22T01:17:28.423Z,99.99
2018-12-22T01:18:28.422Z,99.99
2018-12-22T01:19:28.424Z,99.99
2018-12-22T01:20:28.403Z,99.99
2018-12-22T01:21:28.395Z,99.99
2018-12-22T01:22:28.360Z,99.99
2018-12-22T01:23:28.400Z,99.99
2018-12-22T01:24:28.397Z,99.99
2018-12-22T01:25:28.372Z,99.99
2018-12-22T01:26:28.369Z,99.99
2018-12-22T01:27:28.375Z,99.99
2018-12-22T01:28:28.327Z,99.99
2018-12-22T01:29:28.390Z,99.99
2018-12-22T01:30:28.319Z,99.99
2018-12-22T01:31:28.338Z,99.99
2018-12-22T01:32:28.333Z,99.99
2018-12-22T01:33:28.330Z,99.99
2018-12-22T01:34:28.295Z,99.99
2018-12-22T01:35:28.315Z,99.99
2018-12-22T01:36:28.291Z,99.99
2018-12-22T01:37:28.273Z,99.99
2018-12-22T01:38:28.288Z,99.99
2018-12-22T01:39:28.289Z,99.99
2018-12-22T01:40:28.290Z,99.99
2018-12-22T01:41:28.279Z,99.99
2018-12-22T01:42:28.253Z,99.99
2018-12-22T01:43:28.304Z,99.99
2018-12-22T01:44:28.272Z,99.99
2018-12-22T01:45:28.244Z,99.99
2018-12-22T01:46:28.251Z,99.99
2018-12-22T01:47:28.243Z,99.99
2018-12-22T01:48:28.225Z,99.99
2018-12-22T01:49:28.218Z,99.99
2018-12-22T01:50:28.222Z,99.99
2018-12-22T01:51:28.201Z,99.99
2018-12-22T01:52:28.205Z,99.99
2018-12-22T01:53:28.195Z,99.99
2018-12-22T01:54:28.204Z,99.99
2018-12-22T01:55:28.193Z,99.99
2018-12-22T01:56:28.187Z,99.99
2018-12-22T01:57:28.211Z,99.99
2018-12-22T01:58:28.186Z,99.99
2018-12-22T01:59:28.143Z,99.99
2018-12-22T02:00:28.159Z,99.99
2018-12-22T02:01:28.154Z,99.99
2018-12-22T02:02:28.177Z,99.99
2018-12-22T02:03:28.137Z,99.99
2018-12-22T02:04:28.133Z,99.99
2018-12-22T02:05:28.133Z,99.99
2018-12-22T02:06:28.123Z,99.99
2018-12-22T02:07:28.104Z,99.99
2018-12-22T02:08:28.100Z,99.99
2018-12-22T02:09:28.098Z,99.99
2018-12-22T02:10:28.080Z,99.99
2018-12-22T02:11:28.096Z,99.99
2018-12-22T02:12:28.090Z,99.99
2018-12-22T02:13:28.061Z,99.99
2018-12-22T02:14:28.062Z,99.99
2018-12-22T02:15:28.052Z,99.99
2018-12-22T02:16:28.055Z,99.99
2018-12-22T02:17:28.045Z,99.99
2018-12-22T02:18:28.063Z,99.99
2018-12-22T02:19:28.030Z,99.99
2018-12-22T02:20:28.025Z,99.99
2018-12-22T02:21:28.026Z,99.99
2018-12-22T02:22:28.007Z,99.99
2018-12-22T02:23:28.010Z,99.99
2018-12-22T02:24:28.125Z,99.99
2018-12-22T02:25:28.011Z,99.99
2018-12-22T02:26:27.974Z,99.99
2018-12-22T02:27:28.086Z,99.99
2018-12-22T02:28:27.985Z,99.99
2018-12-22T02:29:28.014Z,99.99
2018-12-22T02:30:27.961Z,99.99
2018-12-22T02:31:27.986Z,99.99
2018-12-22T02:32:27.966Z,99.99
2018-12-22T02:33:27.942Z,99.99
2018-12-22T02:34:27.955Z,99.99
2018-12-22T02:35:27.929Z,99.99
2018-12-22T02:36:27.946Z,99.99
2018-12-22T02:37:27.905Z,99.99
2018-12-22T02:38:27.934Z,99.99
2018-12-22T02:39:27.926Z,99.99
2018-12-22T02:40:27.906Z,99.99
2018-12-22T02:41:27.916Z,99.99
2018-12-22T02:42:27.887Z,99.99
2018-12-22T02:43:27.929Z,99.99
2018-12-22T02:44:27.897Z,99.99
2018-12-22T02:45:27.890Z,99.99
2018-12-22T02:46:27.887Z,99.99
2018-12-22T02:47:27.877Z,99.99
2018-12-22T02:48:27.846Z,99.99
2018-12-22T02:49:27.850Z,99.99
2018-12-22T02:50:27.848Z,99.99
2018-12-22T02:51:27.830Z,99.99
2018-12-22T02:52:27.841Z,99.99
2018-12-22T02:53:27.823Z,99.99
2018-12-22T02:54:27.824Z,99.99
2018-12-22T02:55:27.811Z,99.99
2018-12-22T02:56:27.818Z,99.99
2018-12-22T02:57:27.813Z,99.99
2018-12-22T02:58:27.794Z,99.99
2018-12-22T02:59:27.801Z,99.99
2018-12-22T03:00:27.800Z,99.99
2018-12-22T03:01:27.811Z,99.99
2018-12-22T03:02:27.822Z,99.99
2018-12-22T03:03:27.777Z,99.99
2018-12-22T03:04:27.771Z,99.99
2018-12-22T03:05:27.747Z,99.99
2018-12-22T03:06:27.761Z,99.99
2018-12-22T03:07:27.804Z,99.99
2018-12-22T03:08:27.786Z,99.99
2018-12-22T03:09:27.730Z,99.99
2018-12-22T03:10:27.779Z,99.99
2018-12-22T03:11:27.734Z,99.99
2018-12-22T03:12:27.718Z,99.99
2018-12-22T03:13:27.726Z,99.99
2018-12-22T03:14:27.725Z,99.99
2018-12-22T03:15:27.691Z,99.99
2018-12-22T03:16:27.712Z,99.99
2018-12-22T03:17:27.740Z,99.99
2018-12-22T03:18:27.707Z,99.99
2018-12-22T03:19:27.679Z,99.99
2018-12-22T03:20:27.686Z,99.99
2018-12-22T03:21:27.673Z,99.99
2018-12-22T03:22:27.683Z,99.99
2018-12-22T03:23:27.652Z,99.99
2018-12-22T03:24:27.675Z,99.99
2018-12-22T03:25:27.656Z,99.99
2018-12-22T03:26:27.698Z,99.99
2018-12-22T03:27:27.660Z,99.99
2018-12-22T03:28:27.613Z,99.99
2018-12-22T03:29:27.624Z,99.99
2018-12-22T03:30:27.634Z,99.99
2018-12-22T03:31:27.615Z,99.99
2018-12-22T03:32:27.614Z,99.99
2018-12-22T03:33:27.601Z,99.99
2018-12-22T03:34:27.594Z,99.99
2018-12-22T03:35:27.636Z,99.99
2018-12-22T03:36:27.560Z,99.99
2018-12-22T03:37:27.614Z,99.99
2018-12-22T03:38:27.564Z,99.99
2018-12-22T03:39:27.558Z,99.99
2018-12-22T03:40:27.560Z,99.99
2018-12-22T03:41:27.558Z,99.99
2018-12-22T03:42:27.557Z,99.99
2018-12-22T03:43:27.555Z,99.99
2018-12-22T03:44:27.517Z,99.99
2018-12-22T03:45:27.515Z,99.99
2018-12-22T03:46:27.504Z,99.99
2018-12-22T03:47:27.503Z,99.99
2018-12-22T03:48:27.495Z,99.99
2018-12-22T03:49:27.505Z,99.99
2018-12-22T03:50:27.484Z,99.99
2018-12-22T03:51:27.497Z,99.99
2018-12-22T03:52:27.495Z,99.99
2018-12-22T03:53:27.464Z,99.99
2018-12-22T03:54:27.512Z,99.99
2018-12-22T03:55:27.497Z,99.99
2018-12-22T03:56:27.504Z,99.99
2018-12-22T03:57:27.465Z,99.99
2018-12-22T03:58:27.461Z,99.99
2018-12-22T03:59:27.489Z,99.99
2018-12-22T04:00:27.431Z,99.99
2018-12-22T04:01:27.438Z,99.99
2018-12-22T04:02:27.468Z,99.99
2018-12-22T04:03:27.402Z,99.99
2018-12-22T04:04:27.444Z,99.99
2018-12-22T04:05:27.400Z,99.99
2018-12-22T04:06:27.451Z,99.99
2018-12-22T04:07:27.410Z,99.99
2018-12-22T04:08:27.376Z,99.99
2018-12-22T04:09:27.375Z,99.99
2018-12-22T04:10:27.387Z,99.99
2018-12-22T04:11:27.382Z,99.99
2018-12-22T04:12:27.380Z,99.99
2018-12-22T04:13:27.372Z,99.99
2018-12-22T04:14:27.362Z,99.99
2018-12-22T04:15:27.360Z,99.99
2018-12-22T04:16:27.347Z,99.99
2018-12-22T04:17:27.332Z,99.99
2018-12-22T04:18:27.310Z,99.99
2018-12-22T04:19:27.322Z,99.99
2018-12-22T04:20:27.334Z,99.99
2018-12-22T04:21:27.310Z,99.99
2018-12-22T04:22:27.294Z,99.99
2018-12-22T04:23:27.297Z,99.99
2018-12-22T04:24:27.270Z,99.99
2018-12-22T04:25:27.278Z,99.99
2018-12-22T04:26:27.260Z,99.99
2018-12-22T04:27:27.274Z,99.99
2018-12-22T04:28:27.266Z,99.99
2018-12-22T04:29:33.761Z,99.99
2018-12-22T04:30:27.226Z,99.99
2018-12-22T04:31:27.229Z,99.99
2018-12-22T04:32:27.227Z,99.99
2018-12-22T04:33:27.233Z,99.99
2018-12-22T04:34:27.218Z,99.99
2018-12-22T04:35:27.221Z,99.99
2018-12-22T04:36:27.224Z,99.99
2018-12-22T04:37:27.195Z,99.99
2018-12-22T04:38:27.190Z,99.99
2018-12-22T04:39:27.179Z,99.99
2018-12-22T04:40:27.197Z,99.99
2018-12-22T04:41:27.194Z,99.99
2018-12-22T04:42:27.184Z,99.99
2018-12-22T04:43:27.179Z,99.99
2018-12-22T04:44:27.183Z,99.99
2018-12-22T04:45:27.150Z,99.99
2018-12-22T04:46:27.177Z,99.99
2018-12-22T04:47:27.159Z,99.99
2018-12-22T04:48:27.133Z,99.99
2018-12-22T04:49:27.125Z,99.99
2018-12-22T04:50:27.139Z,99.99
2018-12-22T04:51:27.118Z,99.99
2018-12-22T04:52:27.089Z,99.99
2018-12-22T04:53:27.108Z,99.99
2018-12-22T04:54:27.112Z,99.99
2018-12-22T04:55:27.097Z,99.99
2018-12-22T04:56:27.091Z,99.99
2018-12-22T04:57:27.073Z,99.99
2018-12-22T04:58:27.079Z,99.99
2018-12-22T04:59:27.090Z,99.99
2018-12-22T05:00:27.051Z,99.99
2018-12-22T05:01:27.059Z,99.99
2018-12-22T05:02:27.036Z,99.99
2018-12-22T05:03:27.056Z,99.99
2018-12-22T05:04:27.045Z,99.99
2018-12-22T05:05:27.032Z,99.99
2018-12-22T05:06:27.022Z,99.99
2018-12-22T05:07:27.017Z,99.99
2018-12-22T05:08:27.003Z,99.99
2018-12-22T05:09:27.004Z,99.99
2018-12-22T05:10:27.012Z,99.99
2018-12-22T05:11:26.980Z,99.99
2018-12-22T05:12:26.985Z,99.99
2018-12-22T05:13:27.237Z,99.99
2018-12-22T05:14:27.000Z,99.99
2018-12-22T05:15:26.966Z,99.99
2018-12-22T05:16:26.971Z,99.99
2018-12-22T05:17:26.964Z,99.99
2018-12-22T05:18:26.962Z,99.99
2018-12-22T05:19:26.953Z,99.99
2018-12-22T05:20:26.933Z,99.99
2018-12-22T05:21:26.938Z,99.99
2018-12-22T05:22:26.920Z,99.99
2018-12-22T05:23:26.916Z,99.99
2018-12-22T05:24:26.900Z,99.99
2018-12-22T05:25:26.915Z,99.99
2018-12-22T05:26:26.943Z,99.99
2018-12-22T05:27:26.888Z,99.99
2018-12-22T05:28:26.875Z,99.99
2018-12-22T05:29:26.892Z,99.99
2018-12-22T05:30:26.913Z,99.99
2018-12-22T05:31:26.889Z,99.99
2018-12-22T05:32:26.878Z,99.99
2018-12-22T05:33:26.863Z,99.99
2018-12-22T05:34:26.857Z,99.99
2018-12-22T05:35:26.850Z,99.99
2018-12-22T05:36:26.827Z,99.99
2018-12-22T05:37:26.857Z,99.99
2018-12-22T05:38:26.817Z,99.99
2018-12-22T05:39:26.823Z,99.99
2018-12-22T05:40:26.830Z,99.99
2018-12-22T05:41:26.813Z,99.99
2018-12-22T05:42:26.861Z,99.99
2018-12-22T05:43:26.823Z,99.99
2018-12-22T05:44:27.029Z,99.99
2018-12-22T05:45:26.804Z,99.99
2018-12-22T05:46:26.834Z,99.99
2018-12-22T05:47:26.792Z,99.99
2018-12-22T05:48:26.764Z,99.99
2018-12-22T05:49:26.818Z,99.99
2018-12-22T05:50:26.764Z,99.99
2018-12-22T05:51:26.745Z,99.99
2018-12-22T05:52:26.726Z,99.99
2018-12-22T05:53:26.724Z,99.99
2018-12-22T05:54:26.725Z,99.99
2018-12-22T05:55:26.703Z,99.99
2018-12-22T05:56:26.711Z,99.99
2018-12-22T05:57:26.689Z,99.99
2018-12-22T05:58:26.703Z,99.99
2018-12-22T05:59:26.717Z,99.99
2018-12-22T06:00:26.720Z,99.99
2018-12-22T06:01:26.736Z,99.99
2018-12-22T06:02:26.680Z,99.99
2018-12-22T06:03:26.663Z,99.99
2018-12-22T06:04:26.673Z,99.99
2018-12-22T06:05:26.666Z,99.99
2018-12-22T06:06:26.717Z,99.99
2018-12-22T06:07:26.659Z,99.99
2018-12-22T06:08:26.661Z,99.99
2018-12-22T06:09:26.686Z,99.99
2018-12-22T06:10:26.647Z,99.99
2018-12-22T06:11:26.937Z,99.99
2018-12-22T06:12:26.628Z,99.99
2018-12-22T06:13:26.671Z,99.99
2018-12-22T06:14:26.636Z,99.99
2018-12-22T06:15:26.663Z,99.99
2018-12-22T06:16:26.607Z,99.99
2018-12-22T06:17:27.545Z,99.99
2018-12-22T06:18:26.584Z,99.99
2018-12-22T06:19:26.574Z,99.99
2018-12-22T06:20:26.578Z,99.99
2018-12-22T06:21:26.562Z,99.99
2018-12-22T06:22:26.581Z,99.99
2018-12-22T06:23:26.775Z,99.99
2018-12-22T06:24:26.568Z,99.99
2018-12-22T06:25:26.553Z,99.99
2018-12-22T06:26:26.515Z,99.99
2018-12-22T06:27:26.559Z,99.99
2018-12-22T06:28:26.578Z,99.99
2018-12-22T06:29:26.528Z,99.99
2018-12-22T06:30:26.524Z,99.99
2018-12-22T06:31:26.512Z,99.99
2018-12-22T06:32:26.490Z,99.99
2018-12-22T06:33:26.511Z,99.99
2018-12-22T06:34:26.489Z,99.99
2018-12-22T06:35:26.471Z,99.99
2018-12-22T06:36:26.489Z,99.99
2018-12-22T06:37:26.473Z,99.99
2018-12-22T06:38:26.444Z,99.99
2018-12-22T06:39:26.481Z,99.99
2018-12-22T06:40:26.465Z,99.99
2018-12-22T06:41:26.438Z,99.99
2018-12-22T06:42:26.482Z,99.99
2018-12-22T06:43:26.440Z,99.99
2018-12-22T06:44:26.476Z,99.99
2018-12-22T06:45:26.438Z,99.99
2018-12-22T06:46:26.484Z,99.99
2018-12-22T06:47:26.420Z,99.99
2018-12-22T06:48:26.424Z,99.99
2018-12-22T06:49:26.408Z,99.99
2018-12-22T06:50:26.411Z,99.99
2018-12-22T06:51:26.398Z,99.99
2018-12-22T06:52:26.422Z,99.99
2018-12-22T06:53:26.361Z,99.99
2018-12-22T06:54:26.659Z,99.99
2018-12-22T06:55:26.358Z,99.99
2018-12-22T06:56:26.368Z,99.99
2018-12-22T06:57:26.348Z,99.99
2018-12-22T06:58:26.341Z,99.99
2018-12-22T06:59:26.394Z,99.99
2018-12-22T07:00:26.436Z,99.99
2018-12-22T07:01:26.346Z,99.99
2018-12-22T07:02:26.333Z,99.99
2018-12-22T07:03:26.308Z,99.99
2018-12-22T07:04:26.300Z,99.99
2018-12-22T07:05:26.370Z,99.99
2018-12-22T07:06:26.277Z,99.99
2018-12-22T07:07:26.296Z,99.99
2018-12-22T07:08:26.297Z,99.99
2018-12-22T07:09:26.296Z,99.99
2018-12-22T07:10:26.311Z,99.99
2018-12-22T07:11:26.262Z,99.99
2018-12-22T07:12:26.265Z,99.99
2018-12-22T07:13:26.248Z,99.99
2018-12-22T07:14:26.292Z,99.99
2018-12-22T07:15:26.234Z,99.99
2018-12-22T07:16:26.231Z,99.99
2018-12-22T07:17:26.238Z,99.99
2018-12-22T07:18:26.242Z,99.99
2018-12-22T07:19:26.229Z,99.99
2018-12-22T07:20:26.230Z,99.99
2018-12-22T07:21:26.204Z,99.99
2018-12-22T07:22:26.206Z,99.99
2018-12-22T07:23:26.199Z,99.99
2018-12-22T07:24:26.191Z,99.99
2018-12-22T07:25:26.185Z,99.99
2018-12-22T07:26:26.434Z,99.99
2018-12-22T07:27:26.223Z,99.99
2018-12-22T07:28:26.176Z,99.99
2018-12-22T07:29:26.202Z,99.99
2018-12-22T07:30:26.624Z,99.99
2018-12-22T07:31:26.148Z,99.99
2018-12-22T07:32:26.158Z,99.99
2018-12-22T07:33:26.140Z,99.99
2018-12-22T07:34:26.141Z,99.99
2018-12-22T07:35:26.105Z,99.99
2018-12-22T07:36:26.131Z,99.99
2018-12-22T07:37:26.434Z,99.99
2018-12-22T07:38:26.132Z,99.99
2018-12-22T07:39:26.105Z,99.99
2018-12-22T07:40:26.093Z,99.99
2018-12-22T07:41:26.099Z,99.99
2018-12-22T07:42:26.097Z,99.99
2018-12-22T07:43:26.124Z,99.99
2018-12-22T07:44:26.067Z,99.99
2018-12-22T07:45:26.091Z,99.99
2018-12-22T07:46:26.049Z,99.99
2018-12-22T07:47:26.045Z,99.99
2018-12-22T07:48:26.303Z,99.99
2018-12-22T07:49:26.065Z,99.99
2018-12-22T07:50:26.060Z,99.99
2018-12-22T07:51:26.038Z,99.99
2018-12-22T07:52:26.028Z,99.99
2018-12-22T07:53:26.034Z,99.99
2018-12-22T07:54:26.013Z,99.99
2018-12-22T07:55:26.057Z,99.99
2018-12-22T07:56:26.009Z,99.99
2018-12-22T07:57:26.004Z,99.99
2018-12-22T07:58:25.979Z,99.99
2018-12-22T07:59:25.978Z,99.99
2018-12-22T08:00:34.596Z,99.99
2018-12-22T08:01:25.961Z,99.99
2018-12-22T08:02:25.969Z,99.99
2018-12-22T08:03:26.008Z,99.99
2018-12-22T08:04:25.936Z,99.99
2018-12-22T08:05:25.949Z,99.99
2018-12-22T08:06:25.987Z,99.99
2018-12-22T08:07:25.950Z,99.99
2018-12-22T08:08:25.946Z,99.99
2018-12-22T08:09:25.920Z,99.99
2018-12-22T08:10:25.922Z,99.99
2018-12-22T08:11:25.919Z,99.99
2018-12-22T08:12:25.914Z,99.99
2018-12-22T08:13:25.903Z,99.99
2018-12-22T08:14:25.900Z,99.99
2018-12-22T08:15:25.894Z,99.99
2018-12-22T08:16:25.884Z,99.99
2018-12-22T08:17:25.867Z,99.99
2018-12-22T08:18:25.863Z,99.99
2018-12-22T08:19:25.841Z,99.99
2018-12-22T08:20:25.899Z,99.99
2018-12-22T08:21:25.852Z,99.99
2018-12-22T08:22:25.834Z,99.99
2018-12-22T08:23:25.829Z,99.99
2018-12-22T08:24:25.832Z,99.99
2018-12-22T08:25:25.812Z,99.99
2018-12-22T08:26:25.828Z,99.99
2018-12-22T08:27:25.814Z,99.99
2018-12-22T08:28:25.800Z,99.99
2018-12-22T08:29:25.796Z,99.99
2018-12-22T08:30:25.783Z,99.99
2018-12-22T08:31:25.778Z,99.99
2018-12-22T08:32:25.777Z,99.99
2018-12-22T08:33:25.773Z,99.99
2018-12-22T08:34:25.759Z,99.99
2018-12-22T08:35:25.753Z,99.99
2018-12-22T08:36:25.755Z,99.99
2018-12-22T08:37:25.748Z,99.99
2018-12-22T08:38:25.706Z,99.99
2018-12-22T08:39:25.734Z,99.99
2018-12-22T08:40:25.714Z,99.99
2018-12-22T08:41:25.709Z,99.99
2018-12-22T08:42:25.685Z,99.99
2018-12-22T08:43:25.725Z,99.99
2018-12-22T08:44:25.712Z,99.99
2018-12-22T08:45:25.702Z,99.99
2018-12-22T08:46:25.711Z,99.99
2018-12-22T08:47:25.733Z,99.99
2018-12-22T08:48:25.681Z,99.99
2018-12-22T08:49:25.678Z,99.99
2018-12-22T08:50:25.645Z,99.99
2018-12-22T08:51:25.646Z,99.99
2018-12-22T08:52:25.640Z,99.99
2018-12-22T08:53:25.637Z,99.99
2018-12-22T08:54:25.633Z,99.99
2018-12-22T08:55:25.641Z,99.99
2018-12-22T08:56:25.610Z,99.99
2018-12-22T08:57:25.629Z,99.99
2018-12-22T08:58:25.596Z,99.99
2018-12-22T08:59:25.614Z,99.99
2018-12-22T09:00:25.608Z,99.99
2018-12-22T09:01:25.589Z,99.99
2018-12-22T09:02:25.583Z,99.99
2018-12-22T09:03:25.578Z,99.99
2018-12-22T09:04:25.601Z,99.99
2018-12-22T09:05:25.568Z,99.99
2018-12-22T09:06:25.533Z,99.99
2018-12-22T09:07:25.547Z,99.99
2018-12-22T09:08:25.544Z,99.99
2018-12-22T09:09:25.525Z,99.99
2018-12-22T09:10:25.574Z,99.99
2018-12-22T09:11:25.529Z,99.99
2018-12-22T09:12:25.503Z,99.99
2018-12-22T09:13:25.555Z,99.99
2018-12-22T09:14:25.544Z,99.99
2018-12-22T09:15:25.484Z,99.99
2018-12-22T09:16:25.488Z,99.99
2018-12-22T09:17:25.483Z,99.99
2018-12-22T09:18:25.483Z,99.99
2018-12-22T09:19:25.463Z,99.99
2018-12-22T09:20:25.447Z,99.99
2018-12-22T09:21:25.456Z,99.99
2018-12-22T09:22:25.462Z,99.99
2018-12-22T09:23:25.416Z,99.99
2018-12-22T09:24:25.482Z,99.99
2018-12-22T09:25:25.427Z,99.99
2018-12-22T09:26:25.429Z,99.99
2018-12-22T09:27:25.407Z,99.99
2018-12-22T09:28:25.399Z,99.99
2018-12-22T09:29:25.401Z,99.99
2018-12-22T09:30:25.411Z,99.99
2018-12-22T09:31:25.373Z,99.99
2018-12-22T09:32:25.372Z,99.99
2018-12-22T09:33:25.373Z,99.99
2018-12-22T09:34:25.375Z,99.99
2018-12-22T09:35:25.358Z,99.99
2018-12-22T09:36:25.372Z,99.99
2018-12-22T09:37:25.351Z,99.99
2018-12-22T09:38:25.348Z,99.99
2018-12-22T09:39:25.324Z,99.99
2018-12-22T09:40:25.337Z,99.99
2018-12-22T09:41:25.321Z,99.99
2018-12-22T09:42:25.311Z,99.99
2018-12-22T09:43:25.338Z,99.99
2018-12-22T09:44:25.317Z,99.99
2018-12-22T09:45:25.305Z,99.99
2018-12-22T09:46:25.308Z,99.99
2018-12-22T09:47:25.298Z,99.99
2018-12-22T09:48:25.268Z,99.99
2018-12-22T09:49:25.280Z,99.99
2018-12-22T09:50:25.293Z,99.99
2018-12-22T09:51:25.257Z,99.99
2018-12-22T09:52:25.274Z,99.99
2018-12-22T09:53:25.230Z,99.99
2018-12-22T09:54:25.239Z,99.99
2018-12-22T09:55:25.246Z,99.99
2018-12-22T09:56:25.228Z,99.99
2018-12-22T09:57:25.242Z,99.99
2018-12-22T09:58:25.239Z,99.99
2018-12-22T09:59:25.214Z,99.99
2018-12-22T10:00:25.244Z,99.99
2018-12-22T10:01:25.203Z,99.99
2018-12-22T10:02:25.196Z,99.99
2018-12-22T10:03:25.195Z,99.99
2018-12-22T10:04:25.194Z,99.99
2018-12-22T10:05:25.198Z,99.99
2018-12-22T10:06:25.173Z,99.99
2018-12-22T10:07:25.181Z,99.99
2018-12-22T10:08:25.209Z,99.99
2018-12-22T10:09:25.159Z,99.99
2018-12-22T10:10:25.158Z,99.99
2018-12-22T10:11:25.157Z,99.99
2018-12-22T10:12:25.121Z,99.99
2018-12-22T10:13:25.126Z,99.99
2018-12-22T10:14:25.111Z,99.99
2018-12-22T10:15:25.126Z,99.99
2018-12-22T10:16:25.118Z,99.99
2018-12-22T10:17:25.095Z,99.99
2018-12-22T10:18:25.095Z,99.99
2018-12-22T10:19:25.090Z,99.99
2018-12-22T10:20:25.103Z,99.99
2018-12-22T10:21:25.096Z,99.99
2018-12-22T10:22:25.082Z,99.99
2018-12-22T10:23:25.091Z,99.99
2018-12-22T10:24:25.053Z,99.99
2018-12-22T10:25:25.098Z,99.99
2018-12-22T10:26:25.098Z,99.99
2018-12-22T10:27:25.043Z,99.99
2018-12-22T10:28:25.051Z,99.99
2018-12-22T10:29:25.021Z,99.99
2018-12-22T10:30:25.013Z,99.99
2018-12-22T10:31:25.015Z,99.99
2018-12-22T10:32:25.009Z,99.99
2018-12-22T10:33:24.991Z,99.99
2018-12-22T10:34:25.001Z,99.99
2018-12-22T10:35:25.049Z,99.99
2018-12-22T10:36:25.009Z,99.99
2018-12-22T10:37:25.051Z,99.99
2018-12-22T10:38:25.002Z,99.99
2018-12-22T10:39:24.963Z,99.99
2018-12-22T10:40:24.968Z,99.99
2018-12-22T10:41:24.962Z,99.99
2018-12-22T10:42:24.971Z,99.99
2018-12-22T10:43:24.973Z,99.99
2018-12-22T10:44:24.936Z,99.99
2018-12-22T10:45:24.936Z,99.99
2018-12-22T10:46:24.931Z,99.99
2018-12-22T10:47:24.937Z,99.99
2018-12-22T10:48:25.006Z,99.99
2018-12-22T10:49:24.945Z,99.99
2018-12-22T10:50:24.915Z,99.99
2018-12-22T10:51:24.918Z,99.99
2018-12-22T10:52:24.908Z,99.99
2018-12-22T10:53:24.922Z,99.99
2018-12-22T10:54:24.921Z,99.99
2018-12-22T10:55:24.888Z,99.99
2018-12-22T10:56:24.883Z,99.99
2018-12-22T10:57:24.894Z,99.99
2018-12-22T10:58:24.882Z,99.99
2018-12-22T10:59:24.879Z,99.99
2018-12-22T11:00:24.851Z,99.99
2018-12-22T11:01:26.645Z,99.99
2018-12-22T11:02:24.849Z,99.99
2018-12-22T11:03:24.836Z,99.99
2018-12-22T11:04:24.854Z,99.99
2018-12-22T11:05:24.860Z,99.99
2018-12-22T11:06:24.847Z,99.99
2018-12-22T11:07:24.836Z,99.99
2018-12-22T11:08:24.826Z,99.99
2018-12-22T11:09:24.837Z,99.99
2018-12-22T11:10:24.798Z,99.99
2018-12-22T11:11:24.815Z,99.99
2018-12-22T11:12:24.807Z,99.99
2018-12-22T11:13:24.806Z,99.99
2018-12-22T11:14:24.799Z,99.99
2018-12-22T11:15:24.814Z,99.99
2018-12-22T11:16:24.773Z,99.99
2018-12-22T11:17:24.817Z,98.88
2018-12-22T11:18:24.776Z,97.23
2018-12-22T11:19:24.766Z,96.11
2018-12-22T11:20:24.780Z,96.59
2018-12-22T11:21:24.760Z,93.59
2018-12-22T11:22:24.738Z,94.80
2018-12-22T11:23:24.775Z,92.76
2018-12-22T11:24:24.749Z,92.18
2018-12-22T11:25:24.763Z,91.69
2018-12-22T11:26:24.721Z,90.08
2018-12-22T11:27:24.736Z,88.92
2018-12-22T11:28:24.754Z,89.98
2018-12-22T11:29:24.750Z,90.18
2018-12-22T11:30:24.720Z,91.44
2018-12-22T11:31:24.719Z,90.28
2018-12-22T11:32:24.710Z,88.72
2018-12-22T11:33:24.718Z,88.38
2018-12-22T11:34:24.716Z,87.21
2018-12-22T11:35:24.715Z,86.14
2018-12-22T11:36:24.700Z,85.99
2018-12-22T11:37:24.690Z,86.47
2018-12-22T11:38:24.695Z,85.60
2018-12-22T11:39:24.716Z,84.18
2018-12-22T11:40:24.696Z,82.82
2018-12-22T11:41:24.697Z,81.10
2018-12-22T11:42:24.677Z,80.82
2018-12-22T11:43:24.682Z,80.72
2018-12-22T11:44:24.675Z,80.82
2018-12-22T11:45:24.663Z,78.96
2018-12-22T11:46:24.673Z,79.30
2018-12-22T11:47:24.723Z,79.30
2018-12-22T11:48:24.658Z,78.45
2018-12-22T11:49:24.690Z,79.14
2018-12-22T11:50:24.648Z,77.91
2018-12-22T11:51:24.671Z,75.96
2018-12-22T11:52:24.659Z,75.14
2018-12-22T11:53:24.671Z,76.31
2018-12-22T11:54:24.657Z,76.02
2018-12-22T11:55:24.655Z,74.85
2018-12-22T11:56:24.646Z,74.76
2018-12-22T11:57:24.657Z,74.60
2018-12-22T11:58:24.656Z,73.75
2018-12-22T11:59:24.636Z,73.85
2018-12-22T12:00:24.626Z,73.85
2018-12-22T12:01:24.652Z,73.75
2018-12-22T12:02:24.632Z,72.39
2018-12-22T12:03:24.624Z,73.36
2018-12-22T12:04:24.628Z,73.46
2018-12-22T12:05:24.648Z,73.17
2018-12-22T12:06:24.673Z,73.01
2018-12-22T12:07:24.632Z,71.94
2018-12-22T12:08:24.601Z,71.74
2018-12-22T12:09:24.619Z,71.19
2018-12-22T12:10:24.622Z,69.63
2018-12-22T12:11:24.660Z,70.51
2018-12-22T12:12:24.629Z,68.68
2018-12-22T12:13:24.645Z,69.76
2018-12-22T12:14:24.624Z,67.61
2018-12-22T12:15:24.615Z,68.00
2018-12-22T12:16:24.631Z,67.71
2018-12-22T12:17:24.629Z,67.83
2018-12-22T12:18:24.613Z,66.73
2018-12-22T12:19:24.602Z,66.73
2018-12-22T12:20:24.619Z,66.93
2018-12-22T12:21:24.621Z,66.63
2018-12-22T12:22:24.614Z,66.53
2018-12-22T12:23:24.623Z,66.08
2018-12-22T12:24:24.620Z,66.37
2018-12-22T12:25:24.599Z,65.69
2018-12-22T12:26:24.607Z,65.98
2018-12-22T12:27:24.634Z,66.47
2018-12-22T12:28:24.588Z,65.78
2018-12-22T12:29:24.611Z,65.30
2018-12-22T12:30:24.620Z,65.78
2018-12-22T12:31:24.590Z,66.40
2018-12-22T12:32:24.593Z,66.56
2018-12-22T12:33:24.601Z,65.52
2018-12-22T12:34:24.622Z,64.94
2018-12-22T12:35:24.602Z,64.77
2018-12-22T12:36:24.599Z,64.48
2018-12-22T12:37:24.601Z,63.99
2018-12-22T12:38:24.593Z,64.58
2018-12-22T12:39:24.605Z,63.70
2018-12-22T12:40:24.661Z,64.58
2018-12-22T12:41:24.622Z,63.82
2018-12-22T12:42:24.605Z,63.63
2018-12-22T12:43:24.621Z,63.17
2018-12-22T12:44:24.615Z,62.02
2018-12-22T12:45:24.586Z,63.01
2018-12-22T12:46:24.585Z,62.02
2018-12-22T12:47:24.603Z,62.05
2018-12-22T12:48:24.603Z,61.37
2018-12-22T12:49:24.658Z,60.10
2018-12-22T12:50:24.592Z,59.53
2018-12-22T12:51:24.614Z,59.05
2018-12-22T12:52:24.586Z,60.03